createdAt,value
2022-10-30T00:01:17.501Z,13.00
2022-10-30T00:03:45.240Z,13.00
2022-10-30T00:06:12.700Z,13.00
2022-10-30T00:08:40.248Z,13.00
2022-10-30T00:11:16.343Z,13.00
2022-10-30T00:13:46.943Z,13.00
2022-10-30T00:16:15.697Z,13.00
2022-10-30T00:18:43.774Z,13.00
2022-10-30T00:21:13.908Z,13.00
2022-10-30T00:23:47.662Z,12.90
2022-10-30T00:26:15.849Z,12.90
2022-10-30T00:28:43.541Z,12.90
2022-10-30T00:31:11.498Z,12.90
2022-10-30T00:33:38.880Z,12.90
2022-10-30T00:36:06.543Z,12.90
2022-10-30T00:38:34.202Z,12.90
2022-10-30T00:41:01.951Z,12.80
2022-10-30T00:43:32.590Z,12.80
2022-10-30T00:46:08.167Z,12.80
2022-10-30T00:48:36.182Z,12.70
2022-10-30T00:51:07.519Z,12.70
2022-10-30T00:53:35.025Z,12.70
2022-10-30T00:56:06.501Z,12.60
2022-10-30T00:58:35.325Z,12.60
2022-10-30T01:01:05.889Z,12.60
2022-10-30T01:03:35.352Z,12.60
2022-10-30T01:06:07.127Z,12.50
2022-10-30T01:08:35.631Z,12.50
2022-10-30T01:11:03.951Z,12.50
2022-10-30T01:13:32.875Z,12.50
2022-10-30T01:16:12.211Z,12.40
2022-10-30T01:18:54.691Z,12.40
2022-10-30T01:21:43.292Z,12.40
2022-10-30T01:24:42.087Z,12.40
2022-10-30T01:27:31.658Z,12.40
2022-10-30T01:30:20.030Z,12.40
2022-10-30T01:33:16.970Z,12.40
2022-10-30T01:35:56.790Z,12.30
2022-10-30T01:38:29.087Z,12.30
2022-10-30T01:40:56.185Z,12.20
2022-10-30T01:43:23.364Z,12.20
2022-10-30T01:46:18.390Z,12.10
2022-10-30T01:49:10.403Z,12.10
2022-10-30T01:51:40.670Z,12.00
2022-10-30T01:54:07.639Z,12.00
2022-10-30T01:56:40.482Z,12.00
2022-10-30T01:59:34.688Z,11.90
2022-10-30T02:02:01.849Z,11.90
2022-10-30T02:04:29.846Z,11.90
2022-10-30T02:06:57.217Z,12.00
2022-10-30T02:09:25.528Z,12.00
2022-10-30T02:11:53.810Z,12.10
2022-10-30T02:14:32.606Z,12.10
2022-10-30T02:17:03.290Z,12.10
2022-10-30T02:19:30.579Z,12.20
2022-10-30T02:21:58.086Z,12.20
2022-10-30T02:24:25.203Z,12.20
2022-10-30T02:26:52.306Z,12.20
2022-10-30T02:29:21.981Z,12.20
2022-10-30T02:31:49.209Z,11.70
2022-10-30T02:34:16.834Z,12.20
2022-10-30T02:36:44.373Z,12.20
2022-10-30T02:39:11.609Z,12.20
2022-10-30T02:41:39.053Z,12.20
2022-10-30T02:44:07.155Z,12.20
2022-10-30T02:46:34.826Z,12.20
2022-10-30T02:49:03.097Z,12.20
2022-10-30T02:51:32.292Z,12.20
2022-10-30T02:54:00.247Z,12.20
2022-10-30T02:56:27.730Z,12.10
2022-10-30T02:58:56.686Z,12.00
2022-10-30T03:01:24.001Z,12.00
2022-10-30T03:03:51.673Z,11.90
2022-10-30T03:06:19.118Z,11.80
2022-10-30T03:08:46.485Z,11.70
2022-10-30T03:11:16.224Z,11.20
2022-10-30T03:13:45.088Z,11.60
2022-10-30T03:16:18.758Z,11.60
2022-10-30T03:18:46.186Z,11.50
2022-10-30T03:21:16.641Z,11.40
2022-10-30T03:23:43.764Z,11.30
2022-10-30T03:26:11.314Z,11.30
2022-10-30T03:28:38.931Z,11.20
2022-10-30T03:31:09.085Z,11.20
2022-10-30T03:33:38.332Z,11.20
2022-10-30T03:36:09.339Z,11.20
2022-10-30T03:38:37.358Z,11.20
2022-10-30T03:41:05.504Z,11.20
2022-10-30T03:43:32.921Z,11.10
2022-10-30T03:46:00.200Z,11.10
2022-10-30T03:48:30.593Z,11.10
2022-10-30T03:50:59.678Z,11.10
2022-10-30T03:53:28.684Z,11.20
2022-10-30T03:56:01.137Z,11.10
2022-10-30T03:58:29.405Z,11.10
2022-10-30T04:01:04.965Z,11.10
2022-10-30T04:03:32.472Z,11.10
2022-10-30T04:05:59.717Z,11.10
2022-10-30T04:08:26.871Z,11.10
2022-10-30T04:10:53.968Z,11.20
2022-10-30T04:13:21.130Z,11.20
2022-10-30T04:15:57.189Z,11.20
2022-10-30T04:18:25.096Z,11.30
2022-10-30T04:20:52.240Z,11.30
2022-10-30T04:23:21.968Z,11.30
2022-10-30T04:25:49.478Z,11.30
2022-10-30T04:28:17.174Z,11.30
2022-10-30T04:30:44.356Z,11.30
2022-10-30T04:33:12.987Z,11.30
2022-10-30T04:35:41.179Z,11.30
2022-10-30T04:38:13.909Z,11.40
2022-10-30T04:40:43.362Z,11.40
2022-10-30T04:43:11.861Z,11.50
2022-10-30T04:45:39.844Z,11.50
2022-10-30T04:48:10.440Z,11.50
2022-10-30T04:50:38.290Z,11.50
2022-10-30T04:53:16.366Z,11.50
2022-10-30T04:55:44.721Z,11.60
2022-10-30T04:58:12.644Z,11.60
2022-10-30T05:00:40.372Z,11.60
2022-10-30T05:03:07.429Z,11.60
2022-10-30T05:05:34.455Z,11.60
2022-10-30T05:08:02.000Z,11.70
2022-10-30T05:10:29.495Z,11.70
2022-10-30T05:12:56.924Z,11.70
2022-10-30T05:15:24.396Z,11.70
2022-10-30T05:17:53.941Z,11.40
2022-10-30T05:20:21.921Z,11.80
2022-10-30T05:22:56.855Z,11.90
2022-10-30T05:25:24.471Z,11.90
2022-10-30T05:27:52.016Z,11.90
2022-10-30T05:30:19.217Z,11.90
2022-10-30T05:32:46.418Z,12.00
2022-10-30T05:35:13.570Z,12.00
2022-10-30T05:37:40.780Z,12.00
2022-10-30T05:40:08.266Z,12.00
2022-10-30T05:42:35.333Z,12.00
2022-10-30T05:45:02.841Z,12.00
2022-10-30T05:47:30.112Z,12.00
2022-10-30T05:49:57.175Z,12.00
2022-10-30T05:52:24.259Z,12.00
2022-10-30T05:54:51.352Z,12.00
2022-10-30T05:57:18.595Z,12.00
2022-10-30T05:59:45.753Z,11.90
2022-10-30T06:02:13.117Z,11.90
2022-10-30T06:04:40.337Z,12.00
2022-10-30T06:07:07.669Z,12.00
2022-10-30T06:09:34.762Z,12.00
2022-10-30T06:12:02.101Z,12.10
2022-10-30T06:14:29.465Z,12.10
2022-10-30T06:16:56.574Z,12.10
2022-10-30T06:19:24.098Z,12.10
2022-10-30T06:21:51.509Z,12.20
2022-10-30T06:24:18.588Z,12.20
2022-10-30T06:26:45.688Z,12.20
2022-10-30T06:29:13.007Z,12.20
2022-10-30T06:31:40.349Z,12.30
2022-10-30T06:34:07.632Z,12.30
2022-10-30T06:36:35.310Z,12.30
2022-10-30T06:39:02.713Z,12.40
2022-10-30T06:41:30.653Z,12.40
2022-10-30T06:43:58.743Z,12.40
2022-10-30T06:46:29.046Z,12.50
2022-10-30T06:49:00.019Z,12.50
2022-10-30T06:51:27.663Z,12.60
2022-10-30T06:53:54.797Z,12.60
2022-10-30T06:56:22.164Z,12.60
2022-10-30T06:58:49.252Z,12.70
2022-10-30T07:01:16.587Z,12.70
2022-10-30T07:03:44.000Z,12.70
2022-10-30T07:06:11.232Z,12.70
2022-10-30T07:08:38.469Z,12.70
2022-10-30T07:11:06.025Z,12.70
2022-10-30T07:13:33.197Z,12.70
2022-10-30T07:16:00.397Z,12.70
2022-10-30T07:18:27.609Z,12.60
2022-10-30T07:20:58.822Z,12.70
2022-10-30T07:23:25.948Z,12.70
2022-10-30T07:25:53.147Z,12.80
2022-10-30T07:28:20.456Z,12.80
2022-10-30T07:30:47.822Z,12.80
2022-10-30T07:33:15.191Z,12.80
2022-10-30T07:35:42.467Z,12.90
2022-10-30T07:38:13.113Z,12.90
2022-10-30T07:40:40.354Z,12.90
2022-10-30T07:43:07.701Z,13.00
2022-10-30T07:45:34.839Z,13.00
2022-10-30T07:48:02.384Z,13.10
2022-10-30T07:50:29.917Z,13.10
2022-10-30T07:52:57.173Z,13.20
2022-10-30T07:55:24.566Z,13.20
2022-10-30T07:57:51.777Z,13.30
2022-10-30T08:00:18.997Z,13.30
2022-10-30T08:02:51.222Z,13.40
2022-10-30T08:05:18.663Z,13.50
2022-10-30T08:07:47.337Z,13.50
2022-10-30T08:10:15.059Z,13.60
2022-10-30T08:12:44.273Z,13.70
2022-10-30T08:15:12.606Z,13.80
2022-10-30T08:17:48.393Z,13.80
2022-10-30T08:20:17.881Z,13.80
2022-10-30T08:22:49.649Z,13.80
2022-10-30T08:25:18.852Z,13.80
2022-10-30T08:27:58.750Z,13.80
2022-10-30T08:30:28.714Z,13.80
2022-10-30T08:33:00.617Z,13.90
2022-10-30T08:35:28.754Z,13.80
2022-10-30T08:37:57.483Z,13.90
2022-10-30T08:40:26.285Z,13.90
2022-10-30T08:42:57.988Z,13.90
2022-10-30T08:45:29.868Z,13.90
2022-10-30T08:48:06.398Z,13.90
2022-10-30T08:50:34.918Z,13.80
2022-10-30T08:53:04.412Z,13.90
2022-10-30T08:55:32.597Z,13.90
2022-10-30T08:58:00.231Z,13.90
2022-10-30T09:00:27.662Z,13.90
2022-10-30T09:02:54.959Z,13.90
2022-10-30T09:05:22.259Z,13.90
2022-10-30T09:07:49.351Z,13.90
2022-10-30T09:10:16.474Z,13.90
2022-10-30T09:12:43.595Z,13.90
2022-10-30T09:15:10.641Z,14.00
2022-10-30T09:17:37.703Z,14.00
2022-10-30T09:20:05.503Z,14.00
2022-10-30T09:22:32.703Z,14.00
2022-10-30T09:24:59.955Z,13.90
2022-10-30T09:27:28.067Z,14.00
2022-10-30T09:29:55.531Z,14.00
2022-10-30T09:32:22.903Z,14.00
2022-10-30T09:34:50.455Z,14.00
2022-10-30T09:37:19.431Z,14.00
2022-10-30T09:39:46.742Z,14.00
2022-10-30T09:42:24.132Z,14.10
2022-10-30T09:45:30.050Z,14.10
2022-10-30T09:48:28.299Z,14.20
2022-10-30T09:51:03.525Z,14.30
2022-10-30T09:54:13.469Z,14.30
2022-10-30T09:56:48.029Z,14.40
2022-10-30T09:59:18.595Z,14.40
2022-10-30T10:02:03.193Z,14.40
2022-10-30T10:04:44.148Z,14.50
2022-10-30T10:07:20.427Z,14.50
2022-10-30T10:09:53.417Z,14.50
2022-10-30T10:12:34.013Z,14.50
2022-10-30T10:15:06.790Z,14.60
2022-10-30T10:17:41.781Z,14.60
2022-10-30T10:20:27.455Z,14.70
2022-10-30T10:22:58.228Z,14.70
2022-10-30T10:25:26.569Z,14.70
2022-10-30T10:28:25.423Z,14.80
2022-10-30T10:31:09.622Z,14.80
2022-10-30T10:33:42.817Z,14.90
2022-10-30T10:36:20.812Z,14.90
2022-10-30T10:39:16.156Z,15.00
2022-10-30T10:42:02.387Z,15.10
2022-10-30T10:44:38.654Z,15.20
2022-10-30T10:47:39.808Z,15.30
2022-10-30T10:50:25.063Z,15.30
2022-10-30T10:53:01.655Z,15.40
2022-10-30T10:55:33.981Z,15.40
2022-10-30T10:58:11.622Z,15.50
2022-10-30T11:00:40.347Z,15.50
2022-10-30T11:03:39.334Z,15.50
2022-10-30T11:06:22.064Z,15.50
2022-10-30T11:08:50.532Z,15.50
2022-10-30T11:11:17.587Z,15.60
2022-10-30T11:13:45.923Z,15.70
2022-10-30T11:16:42.888Z,15.70
2022-10-30T11:19:10.256Z,15.80
2022-10-30T11:21:45.603Z,15.80
2022-10-30T11:24:31.235Z,15.90
2022-10-30T11:27:15.368Z,15.90
2022-10-30T11:29:49.631Z,16.00
2022-10-30T11:32:22.776Z,16.10
2022-10-30T11:35:08.309Z,16.10
2022-10-30T11:37:38.469Z,16.10
2022-10-30T11:40:11.592Z,16.20
2022-10-30T11:42:47.995Z,16.20
2022-10-30T11:45:26.001Z,16.30
2022-10-30T11:47:56.085Z,16.40
2022-10-30T11:50:29.327Z,16.50
2022-10-30T11:53:02.333Z,16.60
2022-10-30T11:55:41.714Z,16.70
2022-10-30T11:58:10.084Z,16.80
2022-10-30T12:00:41.374Z,16.90
2022-10-30T12:03:34.700Z,16.90
2022-10-30T12:06:17.104Z,16.80
2022-10-30T12:09:03.110Z,16.80
2022-10-30T12:11:35.381Z,16.90
2022-10-30T12:14:03.078Z,17.00
2022-10-30T12:16:31.002Z,16.90
2022-10-30T12:19:15.612Z,16.90
2022-10-30T12:21:54.162Z,16.90
2022-10-30T12:24:36.464Z,16.90
2022-10-30T12:27:11.933Z,16.90
2022-10-30T12:33:04.607Z,17.00
2022-10-30T12:35:49.028Z,17.10
2022-10-30T12:38:32.972Z,17.20
2022-10-30T12:41:30.948Z,17.30
2022-10-30T12:44:24.252Z,17.40
2022-10-30T12:47:23.542Z,17.30
2022-10-30T12:50:13.649Z,17.30
2022-10-30T12:53:13.034Z,17.30
2022-10-30T12:55:54.376Z,17.30
2022-10-30T12:58:58.919Z,17.30
2022-10-30T13:01:55.295Z,17.30
2022-10-30T13:04:23.630Z,17.40
2022-10-30T13:07:22.788Z,17.40
2022-10-30T13:10:17.138Z,17.40
2022-10-30T13:12:52.577Z,17.40
2022-10-30T13:15:30.893Z,17.30
2022-10-30T13:18:27.445Z,17.30
2022-10-30T13:21:18.271Z,17.30
2022-10-30T13:24:00.427Z,17.20
2022-10-30T13:26:45.888Z,17.20
2022-10-30T13:29:25.152Z,17.10
2022-10-30T13:32:01.506Z,17.10
2022-10-30T13:34:47.607Z,17.00
2022-10-30T13:37:59.069Z,16.90
2022-10-30T13:40:40.661Z,16.80
2022-10-30T13:43:19.394Z,16.80
2022-10-30T13:46:07.806Z,16.70
2022-10-30T13:48:53.530Z,16.70
2022-10-30T13:51:42.661Z,16.60
2022-10-30T13:54:21.549Z,16.60
2022-10-30T13:56:50.656Z,16.50
2022-10-30T13:59:47.883Z,16.50
2022-10-30T14:02:38.758Z,16.50
2022-10-30T14:05:30.932Z,16.40
2022-10-30T14:08:25.465Z,16.30
2022-10-30T14:11:00.353Z,16.30
2022-10-30T14:13:46.204Z,16.20
2022-10-30T14:16:37.728Z,16.10
2022-10-30T14:19:09.797Z,16.10
2022-10-30T14:21:55.477Z,16.00
2022-10-30T14:24:29.721Z,16.00
2022-10-30T14:27:06.103Z,15.90
2022-10-30T14:29:36.261Z,15.90
2022-10-30T14:32:15.332Z,15.80
2022-10-30T14:34:42.783Z,15.70
2022-10-30T14:37:10.970Z,15.70
2022-10-30T14:39:43.370Z,15.60
2022-10-30T14:42:46.082Z,15.50
2022-10-30T14:45:31.407Z,15.50
2022-10-30T14:47:58.435Z,15.40
2022-10-30T14:50:28.425Z,15.40
2022-10-30T14:53:20.572Z,15.30
2022-10-30T14:56:11.942Z,15.20
2022-10-30T14:58:39.641Z,15.20
2022-10-30T15:01:27.703Z,15.10
2022-10-30T15:04:19.004Z,15.00
2022-10-30T15:06:59.698Z,15.00
2022-10-30T15:09:58.025Z,15.00
2022-10-30T15:12:40.313Z,15.00
2022-10-30T15:15:16.699Z,15.00
2022-10-30T15:17:49.128Z,15.00
2022-10-30T15:20:28.933Z,15.00
2022-10-30T15:23:23.095Z,15.00
2022-10-30T15:25:53.593Z,15.00
2022-10-30T15:31:05.343Z,15.10
2022-10-30T15:33:38.113Z,15.10
2022-10-30T15:36:06.091Z,15.10
2022-10-30T15:38:33.221Z,15.10
2022-10-30T15:41:03.255Z,15.10
2022-10-30T15:43:34.662Z,15.10
2022-10-30T15:46:02.855Z,15.10
2022-10-30T15:48:38.210Z,15.10
2022-10-30T15:51:15.232Z,15.10
2022-10-30T15:53:49.243Z,15.10
2022-10-30T15:56:44.492Z,15.10
2022-10-30T15:59:25.565Z,15.10
2022-10-30T16:01:55.740Z,15.10
2022-10-30T16:04:32.696Z,14.30
2022-10-30T16:07:09.857Z,15.10
2022-10-30T16:09:37.910Z,15.00
2022-10-30T16:12:08.900Z,15.00
2022-10-30T16:14:39.964Z,15.00
2022-10-30T16:17:10.186Z,15.00
2022-10-30T16:19:45.418Z,15.00
2022-10-30T16:22:20.026Z,15.00
2022-10-30T16:24:47.284Z,15.00
2022-10-30T16:27:18.815Z,15.00
2022-10-30T16:29:47.100Z,15.00
2022-10-30T16:32:17.085Z,15.00
2022-10-30T16:34:45.092Z,15.00
2022-10-30T16:37:28.016Z,15.00
2022-10-30T16:39:56.747Z,14.90
2022-10-30T16:42:25.825Z,14.90
2022-10-30T16:45:25.230Z,14.90
2022-10-30T16:47:58.468Z,14.90
2022-10-30T16:50:34.215Z,14.90
2022-10-30T16:53:06.746Z,14.90
2022-10-30T16:55:36.171Z,15.00
2022-10-30T16:58:03.405Z,15.00
2022-10-30T17:00:35.444Z,15.00
2022-10-30T17:03:10.488Z,15.00
2022-10-30T17:05:38.275Z,15.00
2022-10-30T17:08:17.686Z,15.00
2022-10-30T17:10:59.861Z,15.00
2022-10-30T17:13:34.614Z,15.00
2022-10-30T17:16:20.318Z,15.00
2022-10-30T17:18:55.328Z,14.90
2022-10-30T17:21:37.243Z,14.90
2022-10-30T17:24:04.999Z,14.90
2022-10-30T17:26:39.144Z,14.90
2022-10-30T17:29:06.502Z,14.90
2022-10-30T17:31:36.662Z,14.90
2022-10-30T17:34:19.588Z,14.90
2022-10-30T17:36:48.551Z,14.90
2022-10-30T17:39:16.152Z,14.90
2022-10-30T17:41:44.742Z,14.90
2022-10-30T17:44:23.111Z,14.80
2022-10-30T17:46:52.293Z,14.90
2022-10-30T17:49:29.115Z,14.80
2022-10-30T17:51:56.444Z,14.80
2022-10-30T17:54:24.018Z,14.90
2022-10-30T17:56:51.752Z,14.90
2022-10-30T17:59:19.292Z,14.90
2022-10-30T18:01:47.144Z,14.90
2022-10-30T18:04:20.480Z,15.00
2022-10-30T18:06:48.595Z,15.00
2022-10-30T18:09:15.688Z,14.90
2022-10-30T18:11:42.861Z,15.00
2022-10-30T18:14:12.283Z,15.00
2022-10-30T18:16:39.817Z,15.00
2022-10-30T18:19:11.564Z,15.00
2022-10-30T18:21:39.144Z,15.00
2022-10-30T18:24:11.924Z,15.00
2022-10-30T18:26:40.885Z,14.90
2022-10-30T18:29:09.259Z,15.00
2022-10-30T18:31:36.676Z,14.80
2022-10-30T18:34:04.457Z,15.00
2022-10-30T18:36:31.564Z,14.90
2022-10-30T18:38:58.809Z,15.00
2022-10-30T18:41:33.684Z,15.00
2022-10-30T18:44:01.137Z,15.00
2022-10-30T18:46:30.667Z,15.00
2022-10-30T18:49:09.029Z,15.00
2022-10-30T18:51:36.179Z,15.00
2022-10-30T18:54:03.917Z,15.00
2022-10-30T18:56:32.819Z,15.00
2022-10-30T18:59:01.949Z,15.00
2022-10-30T19:01:32.452Z,15.10
2022-10-30T19:04:02.471Z,15.10
2022-10-30T19:06:29.908Z,15.10
2022-10-30T19:08:57.160Z,15.00
2022-10-30T19:11:25.850Z,15.00
2022-10-30T19:13:54.633Z,15.00
2022-10-30T19:16:24.645Z,15.00
2022-10-30T19:18:51.719Z,15.00
2022-10-30T19:21:21.566Z,15.00
2022-10-30T19:23:48.784Z,14.90
2022-10-30T19:26:17.590Z,14.90
2022-10-30T19:28:45.921Z,14.90
2022-10-30T19:31:18.419Z,14.90
2022-10-30T19:33:47.560Z,14.80
2022-10-30T19:36:36.863Z,14.80
2022-10-30T19:39:13.927Z,14.80
2022-10-30T19:41:41.601Z,14.80
2022-10-30T19:44:09.194Z,14.80
2022-10-30T19:46:37.920Z,14.70
2022-10-30T19:49:23.701Z,14.80
2022-10-30T19:51:50.876Z,14.80
2022-10-30T19:54:18.677Z,14.70
2022-10-30T19:56:45.995Z,14.70
2022-10-30T19:59:15.391Z,14.70
2022-10-30T20:01:44.316Z,14.70
2022-10-30T20:04:12.434Z,14.70
2022-10-30T20:06:39.597Z,14.70
2022-10-30T20:09:09.297Z,14.70
2022-10-30T20:11:36.345Z,14.70
2022-10-30T20:14:03.827Z,14.70
2022-10-30T20:16:31.228Z,14.70
2022-10-30T20:18:58.913Z,14.70
2022-10-30T20:21:28.379Z,14.70
2022-10-30T20:23:55.507Z,14.60
2022-10-30T20:26:25.377Z,14.60
2022-10-30T20:28:53.645Z,14.50
2022-10-30T20:31:21.261Z,14.50
2022-10-30T20:33:48.536Z,14.50
2022-10-30T20:36:15.662Z,14.50
2022-10-30T20:38:42.926Z,14.50
2022-10-30T20:41:21.446Z,14.50
2022-10-30T20:43:50.231Z,14.40
2022-10-30T20:46:17.352Z,14.40
2022-10-30T20:48:44.545Z,14.40
2022-10-30T20:51:12.103Z,14.40
2022-10-30T20:53:39.620Z,14.40
2022-10-30T20:56:07.262Z,14.40
2022-10-30T20:58:34.412Z,14.40
2022-10-30T21:01:01.764Z,14.40
2022-10-30T21:03:28.989Z,14.50
2022-10-30T21:05:58.169Z,14.50
2022-10-30T21:08:31.702Z,14.50
2022-10-30T21:11:03.038Z,14.50
2022-10-30T21:13:30.754Z,14.50
2022-10-30T21:16:02.130Z,14.50
2022-10-30T21:18:29.303Z,14.50
2022-10-30T21:21:07.539Z,14.60
2022-10-30T21:23:34.850Z,14.60
2022-10-30T21:26:06.889Z,14.60
2022-10-30T21:28:34.188Z,14.60
2022-10-30T21:31:11.084Z,14.60
2022-10-30T21:33:39.094Z,14.60
2022-10-30T21:36:14.656Z,14.60
2022-10-30T21:38:43.471Z,14.60
2022-10-30T21:41:12.966Z,14.60
2022-10-30T21:43:39.996Z,14.60
2022-10-30T21:46:09.025Z,14.60
2022-10-30T21:48:36.150Z,14.60
2022-10-30T21:51:15.161Z,14.60
2022-10-30T21:53:42.929Z,14.60
2022-10-30T21:56:14.686Z,14.60
2022-10-30T21:58:42.313Z,14.60
2022-10-30T22:01:18.316Z,14.60
2022-10-30T22:03:45.814Z,14.60
2022-10-30T22:06:14.637Z,14.60
2022-10-30T22:08:44.958Z,14.70
2022-10-30T22:11:12.307Z,14.60
2022-10-30T22:13:39.732Z,14.60
2022-10-30T22:16:09.385Z,14.60
2022-10-30T22:18:36.575Z,14.70
2022-10-30T22:21:07.014Z,14.60
2022-10-30T22:23:35.014Z,14.60
2022-10-30T22:26:05.216Z,14.60
2022-10-30T22:28:33.490Z,14.60
2022-10-30T22:31:10.919Z,14.60
2022-10-30T22:33:38.200Z,14.60
2022-10-30T22:36:15.838Z,14.60
2022-10-30T22:38:43.218Z,14.60
2022-10-30T22:41:14.189Z,14.60
2022-10-30T22:43:42.738Z,14.60
2022-10-30T22:46:11.065Z,14.60
2022-10-30T22:48:38.773Z,14.60
2022-10-30T22:51:11.805Z,14.60
2022-10-30T22:53:43.933Z,14.60
2022-10-30T22:56:16.781Z,14.60
2022-10-30T22:58:47.856Z,14.60
2022-10-30T23:01:18.044Z,14.60
2022-10-30T23:03:46.023Z,14.60
2022-10-30T23:06:13.895Z,14.60
2022-10-30T23:08:41.557Z,14.60
2022-10-30T23:11:08.814Z,14.60
2022-10-30T23:13:37.218Z,14.60
2022-10-30T23:16:06.960Z,14.60
2022-10-30T23:18:34.845Z,14.60
2022-10-30T23:21:05.707Z,14.60
2022-10-30T23:23:37.606Z,14.60
2022-10-30T23:26:14.575Z,14.60
2022-10-30T23:28:41.690Z,14.70
2022-10-30T23:31:10.575Z,14.70
2022-10-30T23:33:37.639Z,14.70
2022-10-30T23:36:05.071Z,14.70
2022-10-30T23:38:32.307Z,14.70
2022-10-30T23:40:59.351Z,14.70
2022-10-30T23:43:26.375Z,14.70
2022-10-30T23:45:53.954Z,14.70
2022-10-30T23:48:21.065Z,14.70
2022-10-30T23:50:48.309Z,14.70
2022-10-30T23:53:19.563Z,14.70
2022-10-30T23:55:54.194Z,14.70
2022-10-30T23:58:21.697Z,14.70
